sensor_id;sensor_type;location;lat;lon;timestamp;P1;durP1;ratioP1;P2;durP2;ratioP2
64282;SDS011;50497;50.720;-2.084;2023-04-01T00:00:54;4.82;;;1.75;;
64282;SDS011;50497;50.720;-2.084;2023-04-01T00:03:21;7.55;;;1.70;;
64282;SDS011;50497;50.720;-2.084;2023-04-01T00:05:52;8.55;;;1.83;;
64282;SDS011;50497;50.720;-2.084;2023-04-01T00:08:18;6.72;;;1.52;;
64282;SDS011;50497;50.720;-2.084;2023-04-01T00:10:47;9.02;;;1.98;;
64282;SDS011;50497;50.720;-2.084;2023-04-01T00:13:13;8.80;;;1.70;;
64282;SDS011;50497;50.720;-2.084;2023-04-01T00:15:39;8.88;;;2.08;;
64282;SDS011;50497;50.720;-2.084;2023-04-01T00:18:09;8.00;;;1.70;;
64282;SDS011;50497;50.720;-2.084;2023-04-01T00:20:35;10.63;;;2.08;;
64282;SDS011;50497;50.720;-2.084;2023-04-01T00:23:01;7.30;;;1.88;;
64282;SDS011;50497;50.720;-2.084;2023-04-01T00:27:53;5.57;;;1.73;;
64282;SDS011;50497;50.720;-2.084;2023-04-01T00:30:22;8.02;;;1.83;;
64282;SDS011;50497;50.720;-2.084;2023-04-01T00:32:53;7.55;;;1.52;;
64282;SDS011;50497;50.720;-2.084;2023-04-01T00:35:19;7.47;;;1.60;;
64282;SDS011;50497;50.720;-2.084;2023-04-01T00:37:44;6.85;;;1.70;;
64282;SDS011;50497;50.720;-2.084;2023-04-01T00:40:30;8.30;;;1.50;;
64282;SDS011;50497;50.720;-2.084;2023-04-01T00:42:58;6.78;;;1.60;;
64282;SDS011;50497;50.720;-2.084;2023-04-01T00:45:33;8.63;;;1.70;;
64282;SDS011;50497;50.720;-2.084;2023-04-01T00:48:08;8.77;;;1.75;;
64282;SDS011;50497;50.720;-2.084;2023-04-01T00:53:43;6.35;;;1.42;;
64282;SDS011;50497;50.720;-2.084;2023-04-01T00:56:24;9.88;;;1.88;;
64282;SDS011;50497;50.720;-2.084;2023-04-01T00:58:57;7.13;;;1.80;;
64282;SDS011;50497;50.720;-2.084;2023-04-01T01:01:34;8.95;;;1.60;;
64282;SDS011;50497;50.720;-2.084;2023-04-01T01:04:01;8.10;;;1.55;;
64282;SDS011;50497;50.720;-2.084;2023-04-01T01:14:45;8.30;;;1.80;;
64282;SDS011;50497;50.720;-2.084;2023-04-01T01:31:20;7.35;;;1.73;;
64282;SDS011;50497;50.720;-2.084;2023-04-01T01:34:11;6.93;;;1.80;;
64282;SDS011;50497;50.720;-2.084;2023-04-01T01:36:34;6.05;;;1.67;;
64282;SDS011;50497;50.720;-2.084;2023-04-01T01:39:04;8.73;;;1.73;;
64282;SDS011;50497;50.720;-2.084;2023-04-01T01:41:34;7.50;;;1.67;;
64282;SDS011;50497;50.720;-2.084;2023-04-01T01:44:04;6.85;;;1.60;;
64282;SDS011;50497;50.720;-2.084;2023-04-01T01:46:36;10.25;;;1.80;;
64282;SDS011;50497;50.720;-2.084;2023-04-01T01:49:15;6.60;;;1.50;;
64282;SDS011;50497;50.720;-2.084;2023-04-01T01:51:46;9.32;;;1.60;;
64282;SDS011;50497;50.720;-2.084;2023-04-01T01:54:13;8.35;;;1.77;;
64282;SDS011;50497;50.720;-2.084;2023-04-01T01:56:45;9.70;;;1.50;;
64282;SDS011;50497;50.720;-2.084;2023-04-01T01:59:14;7.32;;;1.50;;
64282;SDS011;50497;50.720;-2.084;2023-04-01T02:01:51;9.13;;;1.98;;
64282;SDS011;50497;50.720;-2.084;2023-04-01T02:04:21;8.60;;;1.70;;
64282;SDS011;50497;50.720;-2.084;2023-04-01T02:06:53;5.28;;;1.63;;
64282;SDS011;50497;50.720;-2.084;2023-04-01T02:09:34;8.13;;;1.70;;
64282;SDS011;50497;50.720;-2.084;2023-04-01T02:12:06;5.25;;;1.50;;
64282;SDS011;50497;50.720;-2.084;2023-04-01T02:19:48;5.80;;;1.33;;
64282;SDS011;50497;50.720;-2.084;2023-04-01T02:22:24;7.25;;;1.50;;
64282;SDS011;50497;50.720;-2.084;2023-04-01T02:24:54;5.65;;;1.70;;
64282;SDS011;50497;50.720;-2.084;2023-04-01T02:27:30;7.97;;;1.60;;
64282;SDS011;50497;50.720;-2.084;2023-04-01T02:32:25;6.43;;;1.70;;
64282;SDS011;50497;50.720;-2.084;2023-04-01T02:34:53;7.28;;;1.55;;
64282;SDS011;50497;50.720;-2.084;2023-04-01T02:37:22;8.85;;;1.98;;
64282;SDS011;50497;50.720;-2.084;2023-04-01T02:39:53;5.97;;;1.63;;
64282;SDS011;50497;50.720;-2.084;2023-04-01T02:42:21;5.82;;;1.60;;
64282;SDS011;50497;50.720;-2.084;2023-04-01T02:44:50;6.70;;;1.50;;
64282;SDS011;50497;50.720;-2.084;2023-04-01T02:47:22;7.78;;;1.50;;
64282;SDS011;50497;50.720;-2.084;2023-04-01T02:49:48;5.20;;;1.40;;
64282;SDS011;50497;50.720;-2.084;2023-04-01T02:52:14;6.03;;;1.50;;
64282;SDS011;50497;50.720;-2.084;2023-04-01T02:54:46;5.60;;;1.60;;
64282;SDS011;50497;50.720;-2.084;2023-04-01T02:57:11;6.97;;;1.65;;
64282;SDS011;50497;50.720;-2.084;2023-04-01T02:59:40;8.43;;;1.60;;
64282;SDS011;50497;50.720;-2.084;2023-04-01T03:02:05;8.43;;;1.58;;
64282;SDS011;50497;50.720;-2.084;2023-04-01T03:04:34;9.77;;;2.13;;
64282;SDS011;50497;50.720;-2.084;2023-04-01T03:06:59;8.65;;;1.70;;
64282;SDS011;50497;50.720;-2.084;2023-04-01T03:09:28;7.55;;;1.48;;
64282;SDS011;50497;50.720;-2.084;2023-04-01T03:11:57;7.75;;;1.70;;
64282;SDS011;50497;50.720;-2.084;2023-04-01T03:14:29;10.70;;;1.65;;
64282;SDS011;50497;50.720;-2.084;2023-04-01T03:16:58;9.45;;;1.48;;
64282;SDS011;50497;50.720;-2.084;2023-04-01T03:19:27;7.57;;;1.70;;
64282;SDS011;50497;50.720;-2.084;2023-04-01T03:21:56;7.78;;;1.80;;
64282;SDS011;50497;50.720;-2.084;2023-04-01T03:24:32;7.32;;;1.80;;
64282;SDS011;50497;50.720;-2.084;2023-04-01T03:27:00;8.07;;;1.63;;
64282;SDS011;50497;50.720;-2.084;2023-04-01T03:29:25;9.02;;;1.60;;
64282;SDS011;50497;50.720;-2.084;2023-04-01T03:32:01;8.02;;;1.75;;
64282;SDS011;50497;50.720;-2.084;2023-04-01T03:34:29;9.35;;;1.77;;
64282;SDS011;50497;50.720;-2.084;2023-04-01T03:36:54;8.50;;;1.77;;
64282;SDS011;50497;50.720;-2.084;2023-04-01T03:39:20;8.15;;;1.80;;
64282;SDS011;50497;50.720;-2.084;2023-04-01T03:41:50;6.55;;;1.33;;
64282;SDS011;50497;50.720;-2.084;2023-04-01T03:44:15;9.82;;;2.00;;
64282;SDS011;50497;50.720;-2.084;2023-04-01T03:46:46;7.60;;;1.63;;
64282;SDS011;50497;50.720;-2.084;2023-04-01T03:49:12;6.35;;;1.60;;
64282;SDS011;50497;50.720;-2.084;2023-04-01T03:51:44;8.18;;;1.60;;
64282;SDS011;50497;50.720;-2.084;2023-04-01T03:54:17;6.03;;;1.60;;
64282;SDS011;50497;50.720;-2.084;2023-04-01T03:56:45;8.45;;;1.90;;
64282;SDS011;50497;50.720;-2.084;2023-04-01T03:59:13;7.63;;;1.92;;
64282;SDS011;50497;50.720;-2.084;2023-04-01T04:01:42;9.50;;;1.95;;
64282;SDS011;50497;50.720;-2.084;2023-04-01T04:04:11;6.70;;;1.58;;
64282;SDS011;50497;50.720;-2.084;2023-04-01T04:06:40;6.40;;;1.80;;
64282;SDS011;50497;50.720;-2.084;2023-04-01T04:09:09;6.10;;;1.50;;
64282;SDS011;50497;50.720;-2.084;2023-04-01T04:11:34;7.00;;;2.05;;
64282;SDS011;50497;50.720;-2.084;2023-04-01T04:14:06;6.03;;;1.63;;
64282;SDS011;50497;50.720;-2.084;2023-04-01T04:16:35;6.30;;;1.70;;
64282;SDS011;50497;50.720;-2.084;2023-04-01T04:19:04;7.15;;;1.58;;
64282;SDS011;50497;50.720;-2.084;2023-04-01T04:21:29;7.10;;;1.75;;
64282;SDS011;50497;50.720;-2.084;2023-04-01T04:23:55;7.15;;;1.85;;
64282;SDS011;50497;50.720;-2.084;2023-04-01T04:26:24;6.72;;;1.80;;
64282;SDS011;50497;50.720;-2.084;2023-04-01T04:28:50;6.30;;;1.63;;
64282;SDS011;50497;50.720;-2.084;2023-04-01T04:31:22;7.43;;;1.55;;
64282;SDS011;50497;50.720;-2.084;2023-04-01T04:33:50;6.78;;;1.60;;
64282;SDS011;50497;50.720;-2.084;2023-04-01T04:36:16;7.97;;;1.92;;
64282;SDS011;50497;50.720;-2.084;2023-04-01T04:38:42;7.28;;;2.13;;
64282;SDS011;50497;50.720;-2.084;2023-04-01T04:41:09;5.78;;;1.65;;
64282;SDS011;50497;50.720;-2.084;2023-04-01T04:43:35;7.35;;;1.70;;
64282;SDS011;50497;50.720;-2.084;2023-04-01T04:46:04;8.35;;;1.90;;
64282;SDS011;50497;50.720;-2.084;2023-04-01T04:48:34;6.93;;;1.70;;
64282;SDS011;50497;50.720;-2.084;2023-04-01T04:51:00;7.07;;;1.70;;
64282;SDS011;50497;50.720;-2.084;2023-04-01T04:53:26;8.52;;;2.13;;
64282;SDS011;50497;50.720;-2.084;2023-04-01T04:55:57;7.85;;;2.00;;
64282;SDS011;50497;50.720;-2.084;2023-04-01T04:58:22;9.70;;;2.15;;
64282;SDS011;50497;50.720;-2.084;2023-04-01T05:00:48;9.43;;;1.90;;
64282;SDS011;50497;50.720;-2.084;2023-04-01T05:03:16;9.13;;;1.77;;
64282;SDS011;50497;50.720;-2.084;2023-04-01T05:05:52;13.00;;;2.20;;
64282;SDS011;50497;50.720;-2.084;2023-04-01T05:08:18;8.63;;;1.92;;
64282;SDS011;50497;50.720;-2.084;2023-04-01T05:10:44;8.70;;;2.35;;
64282;SDS011;50497;50.720;-2.084;2023-04-01T05:13:11;9.45;;;2.40;;
64282;SDS011;50497;50.720;-2.084;2023-04-01T05:15:42;7.85;;;1.70;;
64282;SDS011;50497;50.720;-2.084;2023-04-01T05:18:10;8.88;;;1.67;;
64282;SDS011;50497;50.720;-2.084;2023-04-01T05:20:48;7.45;;;1.90;;
64282;SDS011;50497;50.720;-2.084;2023-04-01T05:23:15;12.32;;;1.70;;
64282;SDS011;50497;50.720;-2.084;2023-04-01T05:25:41;7.30;;;1.83;;
64282;SDS011;50497;50.720;-2.084;2023-04-01T05:28:07;9.70;;;1.58;;
64282;SDS011;50497;50.720;-2.084;2023-04-01T05:30:33;7.68;;;1.80;;
64282;SDS011;50497;50.720;-2.084;2023-04-01T05:32:58;8.07;;;1.92;;
64282;SDS011;50497;50.720;-2.084;2023-04-01T05:35:28;7.18;;;1.60;;
64282;SDS011;50497;50.720;-2.084;2023-04-01T05:37:53;9.27;;;1.80;;
64282;SDS011;50497;50.720;-2.084;2023-04-01T05:40:24;7.80;;;1.63;;
64282;SDS011;50497;50.720;-2.084;2023-04-01T05:42:53;12.05;;;1.80;;
64282;SDS011;50497;50.720;-2.084;2023-04-01T05:45:23;10.38;;;1.73;;
64282;SDS011;50497;50.720;-2.084;2023-04-01T05:47:48;5.95;;;1.60;;
64282;SDS011;50497;50.720;-2.084;2023-04-01T05:50:14;8.20;;;1.50;;
64282;SDS011;50497;50.720;-2.084;2023-04-01T05:52:40;9.70;;;1.90;;
64282;SDS011;50497;50.720;-2.084;2023-04-01T05:55:06;6.50;;;1.50;;
64282;SDS011;50497;50.720;-2.084;2023-04-01T05:57:35;9.13;;;1.70;;
64282;SDS011;50497;50.720;-2.084;2023-04-01T06:00:00;8.27;;;1.88;;
64282;SDS011;50497;50.720;-2.084;2023-04-01T06:02:29;6.95;;;1.45;;
64282;SDS011;50497;50.720;-2.084;2023-04-01T06:05:02;7.40;;;1.73;;
64282;SDS011;50497;50.720;-2.084;2023-04-01T06:07:37;7.10;;;1.38;;
64282;SDS011;50497;50.720;-2.084;2023-04-01T06:10:05;9.38;;;1.92;;
64282;SDS011;50497;50.720;-2.084;2023-04-01T06:13:20;9.30;;;1.92;;
64282;SDS011;50497;50.720;-2.084;2023-04-01T06:21:40;9.07;;;1.85;;
64282;SDS011;50497;50.720;-2.084;2023-04-01T06:32:27;12.30;;;2.70;;
64282;SDS011;50497;50.720;-2.084;2023-04-01T06:40:12;7.03;;;1.70;;
64282;SDS011;50497;50.720;-2.084;2023-04-01T06:46:42;8.40;;;1.58;;
64282;SDS011;50497;50.720;-2.084;2023-04-01T06:49:25;7.13;;;1.83;;
64282;SDS011;50497;50.720;-2.084;2023-04-01T06:52:01;7.05;;;1.67;;
64282;SDS011;50497;50.720;-2.084;2023-04-01T06:57:00;7.35;;;1.85;;
64282;SDS011;50497;50.720;-2.084;2023-04-01T06:59:32;8.30;;;2.00;;
64282;SDS011;50497;50.720;-2.084;2023-04-01T07:04:46;8.82;;;1.70;;
64282;SDS011;50497;50.720;-2.084;2023-04-01T07:07:35;9.43;;;1.70;;
64282;SDS011;50497;50.720;-2.084;2023-04-01T07:10:13;6.18;;;1.50;;
64282;SDS011;50497;50.720;-2.084;2023-04-01T07:13:02;7.32;;;1.48;;
64282;SDS011;50497;50.720;-2.084;2023-04-01T07:18:11;9.00;;;2.00;;
64282;SDS011;50497;50.720;-2.084;2023-04-01T07:20:41;8.30;;;1.55;;
64282;SDS011;50497;50.720;-2.084;2023-04-01T07:23:13;7.07;;;1.83;;
64282;SDS011;50497;50.720;-2.084;2023-04-01T07:26:01;6.60;;;1.67;;
64282;SDS011;50497;50.720;-2.084;2023-04-01T07:28:35;7.72;;;1.80;;
64282;SDS011;50497;50.720;-2.084;2023-04-01T07:31:10;6.15;;;1.42;;
64282;SDS011;50497;50.720;-2.084;2023-04-01T07:34:03;7.43;;;1.50;;
64282;SDS011;50497;50.720;-2.084;2023-04-01T07:42:27;8.95;;;1.98;;
64282;SDS011;50497;50.720;-2.084;2023-04-01T07:47:55;5.68;;;1.60;;
64282;SDS011;50497;50.720;-2.084;2023-04-01T07:53:20;7.13;;;1.60;;
64282;SDS011;50497;50.720;-2.084;2023-04-01T08:07:45;7.88;;;1.52;;
64282;SDS011;50497;50.720;-2.084;2023-04-01T08:10:19;7.53;;;2.03;;
64282;SDS011;50497;50.720;-2.084;2023-04-01T08:21:42;6.00;;;1.55;;
64282;SDS011;50497;50.720;-2.084;2023-04-01T08:24:38;7.03;;;1.85;;
64282;SDS011;50497;50.720;-2.084;2023-04-01T08:27:18;6.13;;;1.63;;
64282;SDS011;50497;50.720;-2.084;2023-04-01T08:29:55;5.32;;;1.40;;
64282;SDS011;50497;50.720;-2.084;2023-04-01T08:32:36;6.38;;;1.70;;
64282;SDS011;50497;50.720;-2.084;2023-04-01T08:35:24;10.10;;;2.00;;
64282;SDS011;50497;50.720;-2.084;2023-04-01T08:37:56;8.85;;;1.83;;
64282;SDS011;50497;50.720;-2.084;2023-04-01T08:46:24;5.28;;;1.40;;
64282;SDS011;50497;50.720;-2.084;2023-04-01T09:00:40;3.22;;;1.20;;
64282;SDS011;50497;50.720;-2.084;2023-04-01T09:29:32;5.72;;;1.30;;
64282;SDS011;50497;50.720;-2.084;2023-04-01T09:32:16;3.25;;;1.20;;
64282;SDS011;50497;50.720;-2.084;2023-04-01T09:44:03;4.22;;;1.20;;
64282;SDS011;50497;50.720;-2.084;2023-04-01T09:53:00;5.47;;;1.55;;
64282;SDS011;50497;50.720;-2.084;2023-04-01T10:02:04;5.03;;;1.15;;
64282;SDS011;50497;50.720;-2.084;2023-04-01T10:08:14;5.82;;;1.60;;
64282;SDS011;50497;50.720;-2.084;2023-04-01T10:19:46;5.85;;;1.90;;
64282;SDS011;50497;50.720;-2.084;2023-04-01T10:22:35;7.95;;;2.50;;
64282;SDS011;50497;50.720;-2.084;2023-04-01T10:36:43;6.65;;;2.13;;
64282;SDS011;50497;50.720;-2.084;2023-04-01T10:47:25;8.55;;;2.90;;
64282;SDS011;50497;50.720;-2.084;2023-04-01T10:50:20;5.45;;;2.03;;
64282;SDS011;50497;50.720;-2.084;2023-04-01T10:53:28;5.18;;;2.15;;
64282;SDS011;50497;50.720;-2.084;2023-04-01T11:21:46;8.93;;;3.88;;
64282;SDS011;50497;50.720;-2.084;2023-04-01T11:24:30;6.40;;;2.75;;
64282;SDS011;50497;50.720;-2.084;2023-04-01T11:33:02;10.73;;;4.18;;
64282;SDS011;50497;50.720;-2.084;2023-04-01T12:05:48;5.38;;;1.90;;
64282;SDS011;50497;50.720;-2.084;2023-04-01T12:14:26;2.90;;;1.30;;
64282;SDS011;50497;50.720;-2.084;2023-04-01T12:17:29;3.83;;;1.52;;
64282;SDS011;50497;50.720;-2.084;2023-04-01T12:22:46;5.25;;;1.60;;
64282;SDS011;50497;50.720;-2.084;2023-04-01T12:25:38;4.43;;;1.35;;
64282;SDS011;50497;50.720;-2.084;2023-04-01T12:28:37;3.63;;;1.10;;
64282;SDS011;50497;50.720;-2.084;2023-04-01T12:31:19;4.63;;;1.17;;
64282;SDS011;50497;50.720;-2.084;2023-04-01T12:34:05;5.38;;;1.50;;
64282;SDS011;50497;50.720;-2.084;2023-04-01T12:36:52;4.75;;;1.70;;
64282;SDS011;50497;50.720;-2.084;2023-04-01T12:48:57;2.72;;;1.15;;
64282;SDS011;50497;50.720;-2.084;2023-04-01T12:52:04;1.45;;;0.80;;
64282;SDS011;50497;50.720;-2.084;2023-04-01T13:08:32;1.38;;;0.73;;
64282;SDS011;50497;50.720;-2.084;2023-04-01T13:25:42;2.90;;;0.95;;
64282;SDS011;50497;50.720;-2.084;2023-04-01T13:28:18;1.10;;;0.80;;
64282;SDS011;50497;50.720;-2.084;2023-04-01T13:33:58;1.23;;;0.70;;
64282;SDS011;50497;50.720;-2.084;2023-04-01T13:42:18;2.33;;;1.20;;
64282;SDS011;50497;50.720;-2.084;2023-04-01T13:47:38;1.70;;;0.90;;
64282;SDS011;50497;50.720;-2.084;2023-04-01T13:50:26;2.88;;;1.10;;
64282;SDS011;50497;50.720;-2.084;2023-04-01T13:53:26;1.83;;;1.00;;
64282;SDS011;50497;50.720;-2.084;2023-04-01T14:06:56;1.15;;;0.80;;
64282;SDS011;50497;50.720;-2.084;2023-04-01T14:09:47;2.13;;;0.90;;
64282;SDS011;50497;50.720;-2.084;2023-04-01T14:12:24;1.50;;;0.90;;
64282;SDS011;50497;50.720;-2.084;2023-04-01T14:20:51;2.25;;;1.00;;
64282;SDS011;50497;50.720;-2.084;2023-04-01T14:34:35;2.45;;;1.20;;
64282;SDS011;50497;50.720;-2.084;2023-04-01T14:37:18;4.45;;;1.17;;
64282;SDS011;50497;50.720;-2.084;2023-04-01T14:48:23;2.60;;;1.25;;
64282;SDS011;50497;50.720;-2.084;2023-04-01T14:51:03;2.38;;;1.25;;
64282;SDS011;50497;50.720;-2.084;2023-04-01T14:59:04;5.87;;;1.87;;
64282;SDS011;50497;50.720;-2.084;2023-04-01T15:01:41;3.05;;;1.40;;
64282;SDS011;50497;50.720;-2.084;2023-04-01T15:07:06;4.10;;;1.80;;
64282;SDS011;50497;50.720;-2.084;2023-04-01T15:12:58;3.80;;;1.92;;
64282;SDS011;50497;50.720;-2.084;2023-04-01T15:18:44;9.48;;;1.95;;
64282;SDS011;50497;50.720;-2.084;2023-04-01T15:21:32;5.00;;;1.88;;
64282;SDS011;50497;50.720;-2.084;2023-04-01T15:24:28;4.85;;;2.25;;
64282;SDS011;50497;50.720;-2.084;2023-04-01T15:36:05;5.97;;;2.83;;
64282;SDS011;50497;50.720;-2.084;2023-04-01T15:38:53;8.48;;;3.70;;
64282;SDS011;50497;50.720;-2.084;2023-04-01T15:44:40;7.93;;;3.65;;
64282;SDS011;50497;50.720;-2.084;2023-04-01T15:53:18;9.00;;;3.72;;
64282;SDS011;50497;50.720;-2.084;2023-04-01T15:58:59;6.78;;;2.92;;
64282;SDS011;50497;50.720;-2.084;2023-04-01T16:01:44;8.85;;;3.53;;
64282;SDS011;50497;50.720;-2.084;2023-04-01T16:07:21;9.25;;;3.88;;
64282;SDS011;50497;50.720;-2.084;2023-04-01T16:10:29;8.40;;;3.60;;
64282;SDS011;50497;50.720;-2.084;2023-04-01T16:21:51;8.65;;;3.55;;
64282;SDS011;50497;50.720;-2.084;2023-04-01T16:31:09;7.05;;;2.55;;
64282;SDS011;50497;50.720;-2.084;2023-04-01T16:33:17;5.43;;;2.17;;
64282;SDS011;50497;50.720;-2.084;2023-04-01T16:35:59;6.95;;;3.15;;
64282;SDS011;50497;50.720;-2.084;2023-04-01T16:38:40;6.95;;;3.28;;
64282;SDS011;50497;50.720;-2.084;2023-04-01T16:44:08;6.72;;;3.20;;
64282;SDS011;50497;50.720;-2.084;2023-04-01T16:46:44;6.10;;;2.80;;
64282;SDS011;50497;50.720;-2.084;2023-04-01T16:57:26;5.95;;;2.70;;
64282;SDS011;50497;50.720;-2.084;2023-04-01T17:00:18;5.40;;;2.63;;
64282;SDS011;50497;50.720;-2.084;2023-04-01T17:05:46;5.20;;;2.42;;
64282;SDS011;50497;50.720;-2.084;2023-04-01T17:13:44;6.22;;;2.60;;
64282;SDS011;50497;50.720;-2.084;2023-04-01T17:16:26;4.78;;;2.30;;
64282;SDS011;50497;50.720;-2.084;2023-04-01T17:19:14;5.70;;;2.50;;
64282;SDS011;50497;50.720;-2.084;2023-04-01T17:22:21;5.85;;;2.60;;
64282;SDS011;50497;50.720;-2.084;2023-04-01T17:24:57;6.13;;;2.78;;
64282;SDS011;50497;50.720;-2.084;2023-04-01T17:30:37;5.95;;;2.30;;
64282;SDS011;50497;50.720;-2.084;2023-04-01T18:02:55;5.93;;;2.40;;
64282;SDS011;50497;50.720;-2.084;2023-04-01T18:05:51;7.47;;;2.83;;
64282;SDS011;50497;50.720;-2.084;2023-04-01T18:14:13;5.35;;;2.50;;
64282;SDS011;50497;50.720;-2.084;2023-04-01T18:19:42;6.63;;;3.15;;
64282;SDS011;50497;50.720;-2.084;2023-04-01T18:22:42;8.38;;;3.85;;
64282;SDS011;50497;50.720;-2.084;2023-04-01T18:36:33;9.18;;;4.18;;
64282;SDS011;50497;50.720;-2.084;2023-04-01T18:49:43;11.82;;;6.43;;
64282;SDS011;50497;50.720;-2.084;2023-04-01T18:52:25;11.38;;;5.78;;
64282;SDS011;50497;50.720;-2.084;2023-04-01T18:57:48;10.50;;;6.00;;
64282;SDS011;50497;50.720;-2.084;2023-04-01T19:02:50;9.90;;;5.45;;
64282;SDS011;50497;50.720;-2.084;2023-04-01T19:13:48;22.42;;;12.95;;
64282;SDS011;50497;50.720;-2.084;2023-04-01T19:20:03;9.15;;;4.88;;
64282;SDS011;50497;50.720;-2.084;2023-04-01T19:25:26;6.95;;;3.80;;
64282;SDS011;50497;50.720;-2.084;2023-04-01T19:28:29;11.13;;;4.07;;
64282;SDS011;50497;50.720;-2.084;2023-04-01T19:34:14;8.27;;;4.15;;
64282;SDS011;50497;50.720;-2.084;2023-04-01T19:37:08;8.20;;;4.30;;
64282;SDS011;50497;50.720;-2.084;2023-04-01T19:39:38;8.00;;;4.80;;
64282;SDS011;50497;50.720;-2.084;2023-04-01T19:44:53;9.27;;;5.25;;
64282;SDS011;50497;50.720;-2.084;2023-04-01T19:53:06;9.10;;;5.65;;
64282;SDS011;50497;50.720;-2.084;2023-04-01T19:55:47;10.27;;;6.65;;
64282;SDS011;50497;50.720;-2.084;2023-04-01T19:58:28;10.52;;;6.15;;
64282;SDS011;50497;50.720;-2.084;2023-04-01T20:01:03;9.43;;;5.57;;
64282;SDS011;50497;50.720;-2.084;2023-04-01T20:03:41;9.98;;;5.55;;
64282;SDS011;50497;50.720;-2.084;2023-04-01T20:06:17;10.60;;;5.72;;
64282;SDS011;50497;50.720;-2.084;2023-04-01T20:11:53;9.60;;;6.05;;
64282;SDS011;50497;50.720;-2.084;2023-04-01T20:14:44;9.48;;;6.30;;
64282;SDS011;50497;50.720;-2.084;2023-04-01T20:17:23;10.20;;;5.53;;
64282;SDS011;50497;50.720;-2.084;2023-04-01T20:22:34;11.40;;;6.18;;
64282;SDS011;50497;50.720;-2.084;2023-04-01T20:27:50;10.70;;;6.22;;
64282;SDS011;50497;50.720;-2.084;2023-04-01T20:30:33;11.60;;;6.68;;
64282;SDS011;50497;50.720;-2.084;2023-04-01T20:33:30;11.18;;;6.50;;
64282;SDS011;50497;50.720;-2.084;2023-04-01T20:39:13;12.40;;;6.70;;
64282;SDS011;50497;50.720;-2.084;2023-04-01T20:47:47;15.82;;;9.20;;
64282;SDS011;50497;50.720;-2.084;2023-04-01T20:50:48;17.58;;;9.15;;
64282;SDS011;50497;50.720;-2.084;2023-04-01T20:53:20;17.73;;;9.60;;
64282;SDS011;50497;50.720;-2.084;2023-04-01T21:12:22;10.55;;;5.72;;
64282;SDS011;50497;50.720;-2.084;2023-04-01T21:15:07;11.35;;;5.63;;
64282;SDS011;50497;50.720;-2.084;2023-04-01T21:22:56;11.43;;;5.18;;
64282;SDS011;50497;50.720;-2.084;2023-04-01T21:40:14;9.68;;;6.00;;
64282;SDS011;50497;50.720;-2.084;2023-04-01T21:45:19;5.85;;;3.20;;
64282;SDS011;50497;50.720;-2.084;2023-04-01T21:50:48;5.57;;;2.60;;
64282;SDS011;50497;50.720;-2.084;2023-04-01T21:59:00;4.93;;;2.05;;
64282;SDS011;50497;50.720;-2.084;2023-04-01T22:04:33;3.88;;;1.90;;
64282;SDS011;50497;50.720;-2.084;2023-04-01T22:07:23;4.10;;;2.00;;
64282;SDS011;50497;50.720;-2.084;2023-04-01T22:12:54;4.07;;;2.03;;
64282;SDS011;50497;50.720;-2.084;2023-04-01T22:18:39;5.82;;;2.00;;
64282;SDS011;50497;50.720;-2.084;2023-04-01T22:29:24;4.38;;;2.10;;
64282;SDS011;50497;50.720;-2.084;2023-04-01T22:32:03;5.35;;;2.25;;
64282;SDS011;50497;50.720;-2.084;2023-04-01T22:42:47;8.23;;;2.70;;
64282;SDS011;50497;50.720;-2.084;2023-04-01T22:53:59;5.45;;;2.53;;
64282;SDS011;50497;50.720;-2.084;2023-04-01T22:56:43;6.35;;;2.60;;
64282;SDS011;50497;50.720;-2.084;2023-04-01T22:59:20;5.00;;;1.95;;
64282;SDS011;50497;50.720;-2.084;2023-04-01T23:01:52;4.80;;;2.13;;
64282;SDS011;50497;50.720;-2.084;2023-04-01T23:04:33;4.55;;;2.00;;
64282;SDS011;50497;50.720;-2.084;2023-04-01T23:07:07;5.22;;;2.10;;
64282;SDS011;50497;50.720;-2.084;2023-04-01T23:09:49;5.18;;;1.85;;
64282;SDS011;50497;50.720;-2.084;2023-04-01T23:12:23;4.43;;;1.98;;
64282;SDS011;50497;50.720;-2.084;2023-04-01T23:14:52;4.90;;;2.13;;
64282;SDS011;50497;50.720;-2.084;2023-04-01T23:17:28;4.50;;;1.95;;
64282;SDS011;50497;50.720;-2.084;2023-04-01T23:26:29;4.80;;;2.20;;
64282;SDS011;50497;50.720;-2.084;2023-04-01T23:34:20;5.50;;;2.03;;
64282;SDS011;50497;50.720;-2.084;2023-04-01T23:36:58;3.83;;;2.03;;
64282;SDS011;50497;50.720;-2.084;2023-04-01T23:39:42;5.43;;;2.30;;
64282;SDS011;50497;50.720;-2.084;2023-04-01T23:42:15;4.78;;;2.38;;
64282;SDS011;50497;50.720;-2.084;2023-04-01T23:44:45;4.38;;;2.20;;
64282;SDS011;50497;50.720;-2.084;2023-04-01T23:47:23;4.40;;;2.00;;
64282;SDS011;50497;50.720;-2.084;2023-04-01T23:49:53;5.65;;;2.30;;
64282;SDS011;50497;50.720;-2.084;2023-04-01T23:52:58;5.72;;;2.60;;
64282;SDS011;50497;50.720;-2.084;2023-04-01T23:55:37;6.75;;;2.60;;
